Time;durP1;ratioP1;P1;durP2;ratioP2;P2;SDS_P1;SDS_P2;PMS_P1;PMS_P2;Temp;Humidity;BMP_temperature;BMP_pressure;BME280_temperature;BME280_humidity;BME280_pressure;Samples;Min_cycle;Max_cycle;Signal;HPM_P1;HPM_P2
2021/10/22 00:01:06;;;;;;;9.45;3.15;;;7.20;82.30;;;;;;5077613;28;20025;-72
2021/10/22 00:03:32;;;;;;;7.32;3.35;;;7.20;82.40;;;;;;5077502;28;20032;-72
2021/10/22 00:05:59;;;;;;;7.10;2.70;;;7.20;82.80;;;;;;5076694;28;20111;-72
2021/10/22 00:08:25;;;;;;;6.15;3.10;;;7.20;82.80;;;;;;5077041;28;20015;-72
2021/10/22 00:10:52;;;;;;;6.05;2.70;;;7.10;82.80;;;;;;5077303;28;20483;-72
2021/10/22 00:13:18;;;;;;;9.63;5.13;;;7.10;82.80;;;;;;5077240;28;20024;-72
2021/10/22 00:15:44;;;;;;;8.25;3.85;;;7.10;82.80;;;;;;5077587;28;20039;-72
2021/10/22 00:18:10;;;;;;;9.82;3.72;;;7.10;82.90;;;;;;5076119;28;20035;-73
2021/10/22 00:20:36;;;;;;;7.55;4.45;;;7.00;82.80;;;;;;5077307;28;20028;-72
2021/10/22 00:23:02;;;;;;;8.10;3.72;;;7.00;82.80;;;;;;5076767;28;20070;-72
2021/10/22 00:25:28;;;;;;;10.88;4.78;;;7.00;82.80;;;;;;5097097;28;20390;-72
2021/10/22 00:27:54;;;;;;;18.33;6.75;;;7.00;83.00;;;;;;5081384;28;20017;-72
2021/10/22 00:30:20;;;;;;;15.07;7.95;;;6.90;83.00;;;;;;5077270;28;20017;-72
2021/10/22 00:32:46;;;;;;;12.85;7.40;;;6.90;83.00;;;;;;5085542;28;20407;-72
2021/10/22 00:35:12;;;;;;;13.43;6.22;;;6.90;83.10;;;;;;5089801;28;20024;-72
2021/10/22 00:37:37;;;;;;;10.23;5.03;;;6.80;83.10;;;;;;5076782;28;20411;-72
2021/10/22 00:40:04;;;;;;;9.68;4.47;;;6.80;83.20;;;;;;5076995;28;20495;-72
2021/10/22 00:42:33;;;;;;;9.07;3.90;;;6.80;83.30;;;;;;5076795;28;20115;-72
2021/10/22 00:44:59;;;;;;;8.25;3.58;;;6.80;83.20;;;;;;5077185;28;20025;-72
2021/10/22 00:47:25;;;;;;;9.10;3.50;;;6.70;83.20;;;;;;5076935;28;20028;-72
2021/10/22 00:49:51;;;;;;;8.98;3.10;;;6.70;83.10;;;;;;5077068;28;20025;-72
2021/10/22 00:52:28;;;;;;;7.18;3.25;;;6.70;83.30;;;;;;5076608;28;20032;-72
2021/10/22 00:54:54;;;;;;;9.05;3.20;;;6.70;83.40;;;;;;5076934;28;20044;-72
2021/10/22 00:57:21;;;;;;;7.78;3.10;;;6.60;83.40;;;;;;5075600;28;20033;-72
2021/10/22 00:59:47;;;;;;;6.88;2.47;;;6.60;83.20;;;;;;5076889;28;20479;-72
2021/10/22 01:02:13;;;;;;;6.78;3.28;;;6.60;83.10;;;;;;5076696;28;20025;-72
2021/10/22 01:04:39;;;;;;;9.68;3.35;;;6.60;83.30;;;;;;5075567;28;20025;-72
2021/10/22 01:07:07;;;;;;;5.65;2.47;;;6.60;83.80;;;;;;5075186;28;20035;-72
2021/10/22 01:09:33;;;;;;;6.85;2.75;;;6.60;84.40;;;;;;5076839;28;20078;-72
2021/10/22 01:11:59;;;;;;;7.15;3.03;;;6.60;85.00;;;;;;5076770;28;20483;-72
2021/10/22 01:14:26;;;;;;;5.28;3.00;;;6.60;85.40;;;;;;5076952;28;20016;-72
2021/10/22 01:16:52;;;;;;;9.75;3.25;;;6.60;85.60;;;;;;5076682;28;20028;-72
2021/10/22 01:19:18;;;;;;;8.85;3.13;;;6.60;84.90;;;;;;5080407;28;20024;-72
2021/10/22 01:21:46;;;;;;;8.93;2.85;;;6.60;84.80;;;;;;5080120;28;20039;-72
2021/10/22 01:24:13;;;;;;;13.20;2.92;;;6.60;84.80;;;;;;5089561;28;20019;-72
2021/10/22 01:26:39;;;;;;;6.53;2.33;;;6.50;84.60;;;;;;5096373;28;20024;-72
2021/10/22 01:29:05;;;;;;;5.88;2.97;;;6.50;84.80;;;;;;5080331;28;20025;-72
2021/10/22 01:31:31;;;;;;;10.38;3.78;;;6.50;85.50;;;;;;5079771;28;20021;-72
2021/10/22 01:33:57;;;;;;;10.00;2.90;;;6.50;85.60;;;;;;5099309;28;20020;-72
2021/10/22 01:36:24;;;;;;;5.93;2.70;;;6.50;85.90;;;;;;5082120;28;20048;-73
2021/10/22 01:38:50;;;;;;;7.35;3.03;;;6.50;85.90;;;;;;5078872;28;20031;-73
2021/10/22 01:41:17;;;;;;;6.30;2.83;;;6.50;85.70;;;;;;5079844;28;20023;-72
2021/10/22 01:43:44;;;;;;;7.55;2.95;;;6.50;85.50;;;;;;5079858;28;20017;-72
2021/10/22 01:46:11;;;;;;;7.60;2.97;;;6.50;85.70;;;;;;5079776;28;20028;-72
2021/10/22 01:48:37;;;;;;;5.18;2.65;;;6.50;86.50;;;;;;5080169;28;20017;-72
2021/10/22 01:51:04;;;;;;;8.25;2.70;;;6.50;86.10;;;;;;5079682;28;20025;-73
2021/10/22 01:53:31;;;;;;;7.55;2.53;;;6.50;85.70;;;;;;5079451;28;20033;-73
2021/10/22 01:55:57;;;;;;;7.30;2.80;;;6.50;85.30;;;;;;5079579;28;20024;-73
2021/10/22 01:58:23;;;;;;;7.03;2.70;;;6.40;85.00;;;;;;5079959;28;20020;-72
2021/10/22 02:00:49;;;;;;;7.57;3.10;;;6.40;84.70;;;;;;5079496;28;20111;-72
2021/10/22 02:03:15;;;;;;;7.15;2.95;;;6.40;84.80;;;;;;5079614;28;20491;-72
2021/10/22 02:05:41;;;;;;;6.40;3.20;;;6.30;84.80;;;;;;5079386;28;20498;-72
2021/10/22 02:08:08;;;;;;;7.85;2.60;;;6.30;85.30;;;;;;5079370;28;20020;-72
2021/10/22 02:10:35;;;;;;;6.05;3.10;;;6.30;85.50;;;;;;5079214;28;20104;-73
2021/10/22 02:13:01;;;;;;;7.18;2.90;;;6.30;85.00;;;;;;5078028;28;20025;-72
2021/10/22 02:15:26;;;;;;;5.30;2.75;;;6.30;85.10;;;;;;5079349;28;20103;-72
2021/10/22 02:17:53;;;;;;;6.40;2.80;;;6.30;84.80;;;;;;5079304;28;20067;-72
2021/10/22 02:20:19;;;;;;;6.22;3.15;;;6.30;84.90;;;;;;5085928;28;20031;-72
2021/10/22 02:22:45;;;;;;;8.70;3.13;;;6.20;84.80;;;;;;5085835;28;20491;-72
2021/10/22 02:25:11;;;;;;;5.78;2.22;;;6.20;84.80;;;;;;5096500;28;20024;-72
2021/10/22 02:27:37;;;;;;;6.15;3.45;;;6.20;84.70;;;;;;5087147;28;20418;-72
2021/10/22 02:30:04;;;;;;;6.40;2.55;;;6.10;84.50;;;;;;5078025;28;20046;-72
2021/10/22 02:32:30;;;;;;;7.20;2.95;;;6.10;84.60;;;;;;5086604;28;20024;-72
2021/10/22 02:34:57;;;;;;;8.70;2.78;;;6.10;84.70;;;;;;5091984;28;20059;-72
2021/10/22 02:37:22;;;;;;;7.38;3.13;;;6.10;85.10;;;;;;5078454;28;20051;-72
2021/10/22 02:39:48;;;;;;;5.30;2.60;;;6.10;85.00;;;;;;5078626;28;20033;-72
2021/10/22 02:42:14;;;;;;;7.63;2.80;;;6.10;84.70;;;;;;5078925;28;20024;-72
2021/10/22 02:44:40;;;;;;;7.32;2.83;;;6.00;84.70;;;;;;5078833;28;20021;-72
2021/10/22 02:47:08;;;;;;;4.97;2.70;;;6.00;84.80;;;;;;5077397;28;20025;-72
2021/10/22 02:49:34;;;;;;;6.20;2.65;;;6.00;84.70;;;;;;5078701;28;20059;-72
2021/10/22 02:52:00;;;;;;;7.85;2.95;;;6.00;84.70;;;;;;5078346;28;20031;-72
2021/10/22 02:54:26;;;;;;;8.95;3.08;;;5.90;84.60;;;;;;5078400;28;20046;-72
2021/10/22 02:56:52;;;;;;;8.00;2.35;;;5.90;84.50;;;;;;5078502;28;20449;-72
2021/10/22 02:59:18;;;;;;;6.55;2.60;;;5.90;84.60;;;;;;5078440;28;20031;-72
2021/10/22 03:01:44;;;;;;;7.47;2.72;;;5.90;84.70;;;;;;5078396;28;20021;-72
2021/10/22 03:04:10;;;;;;;7.68;3.65;;;5.90;84.80;;;;;;5078451;28;20025;-72
2021/10/22 03:06:36;;;;;;;5.45;2.40;;;5.90;84.80;;;;;;5076924;28;20048;-72
2021/10/22 03:09:02;;;;;;;6.03;2.33;;;5.90;84.70;;;;;;5078346;28;20024;-72
2021/10/22 03:11:28;;;;;;;7.85;2.85;;;5.80;84.70;;;;;;5078208;28;20017;-72
2021/10/22 03:13:55;;;;;;;7.15;2.83;;;5.80;84.90;;;;;;5078191;28;20092;-72
2021/10/22 03:16:21;;;;;;;7.20;2.60;;;5.80;84.90;;;;;;5078430;28;20021;-72
2021/10/22 03:18:48;;;;;;;7.50;2.90;;;5.80;85.10;;;;;;5076873;28;20498;-72
2021/10/22 03:21:18;;;;;;;6.35;2.97;;;5.80;85.00;;;;;;5078049;28;20123;-72
2021/10/22 03:23:45;;;;;;;5.53;2.67;;;5.80;85.10;;;;;;5083397;28;20111;-72
2021/10/22 03:26:10;;;;;;;7.05;3.28;;;5.70;85.10;;;;;;5098013;28;20425;-72
2021/10/22 03:28:36;;;;;;;7.68;3.50;;;5.70;85.20;;;;;;5078052;28;20020;-72
2021/10/22 03:31:02;;;;;;;6.68;3.22;;;5.70;85.00;;;;;;5077796;28;20027;-73
2021/10/22 03:33:28;;;;;;;6.15;2.80;;;5.70;85.00;;;;;;5093446;28;20568;-72
2021/10/22 03:35:54;;;;;;;6.45;3.35;;;5.70;86.40;;;;;;5082600;28;20070;-72
2021/10/22 03:38:19;;;;;;;7.35;2.75;;;5.70;86.60;;;;;;5077613;28;20032;-72
2021/10/22 03:40:46;;;;;;;7.38;3.00;;;5.70;86.60;;;;;;5077351;28;20056;-72
2021/10/22 03:43:11;;;;;;;5.28;2.58;;;5.70;86.20;;;;;;5077766;28;20036;-72
2021/10/22 03:45:37;;;;;;;5.10;2.83;;;5.60;85.70;;;;;;5077538;28;20017;-72
2021/10/22 03:48:03;;;;;;;6.40;3.60;;;5.60;86.50;;;;;;5077960;28;20035;-72
2021/10/22 03:50:29;;;;;;;7.18;2.83;;;5.70;87.30;;;;;;5077575;28;20021;-72
2021/10/22 03:52:55;;;;;;;5.93;2.85;;;5.70;87.70;;;;;;5077403;28;20060;-72
2021/10/22 03:55:21;;;;;;;4.43;2.70;;;5.70;87.10;;;;;;5076480;28;20558;-72
2021/10/22 03:57:47;;;;;;;9.02;2.92;;;5.60;86.50;;;;;;5076461;28;20030;-72
2021/10/22 04:00:13;;;;;;;7.18;3.15;;;5.60;86.20;;;;;;5077360;28;20368;-72
2021/10/22 04:02:39;;;;;;;8.10;3.30;;;5.60;86.30;;;;;;5076036;28;20032;-72
2021/10/22 04:05:07;;;;;;;6.72;3.03;;;5.60;86.70;;;;;;5077316;28;20431;-73
2021/10/22 04:07:34;;;;;;;6.75;3.15;;;5.60;86.20;;;;;;5077333;28;20463;-72
2021/10/22 04:10:01;;;;;;;6.40;2.83;;;5.50;86.20;;;;;;5077081;28;20390;-72
2021/10/22 04:12:27;;;;;;;9.18;3.25;;;5.50;86.00;;;;;;5077435;28;20078;-72
2021/10/22 04:14:53;;;;;;;6.15;3.00;;;5.50;85.90;;;;;;5076148;28;20024;-72
2021/10/22 04:17:19;;;;;;;7.40;2.67;;;5.50;85.70;;;;;;5077489;28;20407;-72
2021/10/22 04:19:45;;;;;;;5.13;3.05;;;5.50;85.70;;;;;;5077191;28;20027;-72
2021/10/22 04:22:11;;;;;;;7.15;3.10;;;5.50;85.60;;;;;;5076838;28;20055;-72
2021/10/22 04:24:37;;;;;;;8.15;3.10;;;5.40;85.50;;;;;;5089708;28;20035;-72
2021/10/22 04:27:03;;;;;;;5.82;3.00;;;5.40;85.30;;;;;;5090061;28;20486;-73
2021/10/22 04:29:29;;;;;;;6.65;3.30;;;5.40;85.30;;;;;;5075705;28;20056;-73
2021/10/22 04:31:55;;;;;;;7.07;3.25;;;5.40;86.40;;;;;;5078717;28;20082;-73
2021/10/22 04:34:24;;;;;;;10.23;4.47;;;5.50;87.90;;;;;;5096290;28;20020;-73
2021/10/22 04:36:50;;;;;;;6.00;3.03;;;5.50;88.20;;;;;;5076856;28;20072;-73
2021/10/22 04:42:01;;;;;;;8.55;3.10;;;5.50;89.00;;;;;;5076890;28;20055;-73
2021/10/22 04:44:30;;;;;;;6.05;4.07;;;5.50;88.90;;;;;;5076880;28;20021;-74
2021/10/22 04:46:56;;;;;;;7.15;3.35;;;5.50;88.50;;;;;;5077079;28;20029;-72
2021/10/22 04:49:22;;;;;;;6.47;2.72;;;5.40;87.90;;;;;;5076799;28;20467;-73
2021/10/22 04:51:49;;;;;;;5.55;2.97;;;5.40;87.20;;;;;;5076574;28;20430;-73
2021/10/22 04:54:15;;;;;;;8.95;3.00;;;5.40;87.00;;;;;;5080504;28;20024;-72
2021/10/22 04:56:40;;;;;;;6.75;2.85;;;5.30;86.70;;;;;;5080831;28;20043;-72
2021/10/22 04:59:06;;;;;;;6.63;2.75;;;5.30;86.60;;;;;;5080645;28;20506;-73
2021/10/22 05:01:32;;;;;;;5.03;2.60;;;5.30;86.30;;;;;;5080613;28;20467;-72
2021/10/22 05:03:58;;;;;;;7.85;3.15;;;5.30;86.30;;;;;;5079317;28;20024;-73
2021/10/22 05:06:24;;;;;;;6.00;3.22;;;5.30;86.90;;;;;;5080343;28;20151;-72
2021/10/22 05:08:49;;;;;;;6.10;3.25;;;5.30;87.80;;;;;;5078984;28;20020;-71
2021/10/22 05:11:15;;;;;;;5.75;2.90;;;5.30;88.00;;;;;;5079212;28;20115;-72
2021/10/22 05:13:41;;;;;;;8.07;3.30;;;5.30;87.80;;;;;;5080316;28;20035;-72
2021/10/22 05:16:07;;;;;;;8.20;3.63;;;5.20;87.30;;;;;;5080683;28;20043;-72
2021/10/22 05:18:33;;;;;;;7.15;3.08;;;5.20;87.20;;;;;;5080266;28;20024;-72
2021/10/22 05:20:59;;;;;;;6.70;3.28;;;5.20;86.90;;;;;;5080377;28;20024;-72
2021/10/22 05:23:25;;;;;;;6.25;3.22;;;5.20;86.60;;;;;;5082528;28;20476;-77
2021/10/22 05:25:50;;;;;;;5.20;2.63;;;5.20;86.60;;;;;;5100446;28;20028;-75
2021/10/22 05:28:16;;;;;;;6.22;3.13;;;5.10;86.40;;;;;;5081453;28;20031;-72
2021/10/22 05:30:43;;;;;;;5.05;3.08;;;5.10;86.30;;;;;;5080306;28;20096;-72
2021/10/22 05:33:15;;;;;;;4.90;3.03;;;5.10;86.40;;;;;;5092914;28;20148;-75
2021/10/22 05:35:41;;;;;;;6.10;3.38;;;5.10;86.30;;;;;;5088348;28;20025;-75
2021/10/22 05:38:07;;;;;;;8.38;3.20;;;5.00;86.20;;;;;;5079616;28;20035;-75
2021/10/22 05:40:35;;;;;;;7.63;3.60;;;5.10;86.20;;;;;;5079870;28;20411;-75
2021/10/22 05:43:01;;;;;;;5.53;2.75;;;5.00;86.10;;;;;;5079743;28;20024;-75
2021/10/22 05:45:27;;;;;;;6.43;3.30;;;5.00;86.10;;;;;;5079841;28;20028;-75
2021/10/22 05:47:52;;;;;;;7.47;3.72;;;5.00;86.10;;;;;;5079783;28;20512;-75
2021/10/22 05:50:18;;;;;;;6.10;3.22;;;4.90;86.00;;;;;;5079782;28;20024;-75
2021/10/22 05:52:44;;;;;;;8.43;3.08;;;5.00;86.20;;;;;;5079553;28;20025;-75
2021/10/22 05:55:11;;;;;;;6.90;3.75;;;5.00;86.00;;;;;;5079284;28;20020;-75
2021/10/22 05:57:37;;;;;;;10.55;5.20;;;5.00;87.20;;;;;;5086200;28;20111;-75
2021/10/22 06:00:04;;;;;;;10.85;5.45;;;5.00;87.60;;;;;;5086173;28;20060;-75
2021/10/22 06:02:30;;;;;;;9.88;5.68;;;5.00;87.30;;;;;;5079065;28;20106;-76
2021/10/22 06:04:56;;;;;;;10.68;6.13;;;5.00;86.90;;;;;;5077830;28;20025;-76
2021/10/22 06:07:22;;;;;;;9.55;5.90;;;4.90;86.70;;;;;;5077685;28;20032;-75
2021/10/22 06:09:48;;;;;;;8.73;5.03;;;4.90;86.60;;;;;;5079273;28;20025;-75
2021/10/22 06:12:14;;;;;;;8.40;4.50;;;4.90;86.50;;;;;;5078878;28;20102;-75
2021/10/22 06:14:40;;;;;;;10.57;6.15;;;4.90;86.20;;;;;;5079311;28;20017;-75
2021/10/22 06:17:06;;;;;;;9.55;4.80;;;4.90;86.00;;;;;;5079152;28;20027;-75
2021/10/22 06:19:36;;;;;;;6.65;3.70;;;4.90;86.30;;;;;;5078963;28;20017;-74
2021/10/22 06:24:31;;;;;;;6.78;3.70;;;4.80;86.00;;;;;;5090774;28;20024;-76
2021/10/22 06:26:57;;;;;;;9.50;4.32;;;4.80;86.00;;;;;;5092499;28;20039;-75
2021/10/22 06:29:22;;;;;;;9.77;4.90;;;4.80;85.90;;;;;;5079025;28;20107;-75
2021/10/22 06:31:48;;;;;;;14.07;7.57;;;4.80;86.10;;;;;;5080246;28;20495;-76
2021/10/22 06:34:14;;;;;;;12.18;7.18;;;4.80;86.10;;;;;;5098400;28;20356;-75
2021/10/22 06:36:40;;;;;;;15.27;8.85;;;4.80;85.90;;;;;;5078162;28;20048;-75
2021/10/22 06:39:06;;;;;;;13.95;7.82;;;4.70;86.00;;;;;;5077838;28;20027;-75
2021/10/22 06:41:34;;;;;;;13.55;8.00;;;4.80;86.00;;;;;;5078600;28;20020;-75
2021/10/22 06:44:00;;;;;;;13.70;7.80;;;4.70;85.90;;;;;;5078295;28;20024;-75
2021/10/22 06:46:26;;;;;;;10.98;5.78;;;4.80;85.90;;;;;;5078837;28;20032;-75
2021/10/22 06:48:52;;;;;;;9.10;5.22;;;4.70;85.90;;;;;;5078085;28;20395;-75
2021/10/22 06:51:18;;;;;;;8.38;5.30;;;4.70;85.90;;;;;;5078050;28;20028;-75
2021/10/22 06:53:44;;;;;;;9.07;5.47;;;4.70;85.90;;;;;;5076837;28;20028;-75
2021/10/22 06:56:10;;;;;;;12.73;7.13;;;4.80;86.20;;;;;;5078123;28;20029;-75
2021/10/22 06:58:36;;;;;;;13.30;6.68;;;4.70;86.10;;;;;;5078069;28;20025;-75
2021/10/22 07:01:02;;;;;;;13.25;6.80;;;4.80;86.20;;;;;;5078630;28;20027;-75
2021/10/22 07:03:37;;;;;;;14.02;6.75;;;4.70;86.40;;;;;;5078136;28;20035;-75
2021/10/22 07:07:14;;;;;;;12.05;6.82;;;4.80;86.50;;;;;;5078149;28;20027;-75
2021/10/22 07:08:50;;;;;;;10.02;5.63;;;4.80;86.30;;;;;;5077606;28;20037;-76
2021/10/22 07:11:17;;;;;;;10.00;5.55;;;4.80;86.70;;;;;;5077929;28;20027;-75
2021/10/22 07:13:49;;;;;;;11.82;5.93;;;4.80;86.70;;;;;;5077977;28;20059;-76
2021/10/22 07:16:15;;;;;;;12.65;6.85;;;4.80;86.60;;;;;;5076092;28;20028;-75
2021/10/22 07:18:41;;;;;;;18.02;8.98;;;4.90;86.60;;;;;;5077930;28;20455;-75
2021/10/22 07:21:07;;;;;;;15.40;8.60;;;4.90;86.60;;;;;;5076253;28;20082;-75
2021/10/22 07:23:34;;;;;;;20.65;9.18;;;4.90;86.50;;;;;;5081427;28;20032;-75
2021/10/22 07:26:00;;;;;;;18.63;9.40;;;5.00;86.60;;;;;;5097022;28;20051;-75
2021/10/22 07:28:26;;;;;;;23.25;10.38;;;5.00;86.50;;;;;;5078506;28;20032;-75
2021/10/22 07:30:52;;;;;;;24.95;11.88;;;5.00;86.60;;;;;;5077478;28;20025;-75
2021/10/22 07:33:18;;;;;;;26.45;12.18;;;5.00;86.40;;;;;;5091669;28;20020;-75
2021/10/22 07:35:44;;;;;;;24.58;13.27;;;5.10;86.40;;;;;;5084513;28;20028;-75
2021/10/22 07:38:11;;;;;;;19.80;9.43;;;5.10;86.30;;;;;;5076824;28;20016;-75
2021/10/22 07:40:42;;;;;;;22.20;9.38;;;5.10;86.80;;;;;;5076718;28;20047;-75
2021/10/22 07:43:07;;;;;;;19.35;9.60;;;5.20;86.90;;;;;;5076972;28;20029;-75
2021/10/22 07:45:34;;;;;;;14.25;7.90;;;5.20;87.10;;;;;;5090567;28;20043;-75
2021/10/22 07:48:00;;;;;;;11.25;6.00;;;5.30;89.30;;;;;;5077584;28;20024;-75
2021/10/22 07:50:26;;;;;;;11.13;5.93;;;5.40;90.40;;;;;;5075711;28;20395;-75
2021/10/22 07:52:52;;;;;;;17.60;9.65;;;5.50;90.40;;;;;;5077245;28;20024;-75
2021/10/22 07:55:18;;;;;;;14.55;7.93;;;5.50;90.30;;;;;;5076685;28;20029;-75
2021/10/22 07:57:43;;;;;;;16.58;7.47;;;5.60;90.70;;;;;;5076900;28;20043;-75
2021/10/22 08:00:11;;;;;;;16.50;8.68;;;5.70;90.70;;;;;;5077208;28;20099;-75
2021/10/22 08:02:37;;;;;;;21.38;11.75;;;5.70;90.30;;;;;;5077385;28;20103;-75
2021/10/22 08:05:03;;;;;;;23.77;13.57;;;5.70;90.30;;;;;;5076752;28;20035;-75
2021/10/22 08:07:30;;;;;;;30.10;13.95;;;5.80;90.10;;;;;;5077210;28;20103;-75
2021/10/22 08:09:58;;;;;;;27.02;14.27;;;5.80;89.90;;;;;;5076609;28;20032;-75
2021/10/22 08:12:25;;;;;;;31.73;16.48;;;5.90;89.50;;;;;;5077019;28;20021;-75
2021/10/22 08:14:51;;;;;;;32.30;15.38;;;5.90;89.30;;;;;;5076823;28;20032;-75
2021/10/22 08:17:19;;;;;;;30.17;14.60;;;6.00;89.20;;;;;;5077205;28;20032;-75
2021/10/22 08:19:51;;;;;;;29.48;14.93;;;6.10;89.50;;;;;;5075797;28;20052;-75
2021/10/22 08:22:26;;;;;;;25.35;12.50;;;6.10;89.50;;;;;;5077122;28;20054;-76
2021/10/22 08:24:53;;;;;;;27.92;14.48;;;6.20;89.70;;;;;;5091625;28;20043;-76
2021/10/22 08:27:20;;;;;;;28.75;15.25;;;6.20;89.60;;;;;;5088246;28;20023;-75
2021/10/22 08:29:46;;;;;;;27.35;14.18;;;6.30;90.20;;;;;;5080788;28;20043;-75
2021/10/22 08:32:11;;;;;;;27.02;13.23;;;6.40;90.40;;;;;;5084416;28;20024;-75
2021/10/22 08:34:38;;;;;;;23.92;12.82;;;6.50;90.40;;;;;;5101079;28;20024;-75
2021/10/22 08:37:04;;;;;;;20.42;11.98;;;6.50;90.10;;;;;;5099776;28;20044;-75
2021/10/22 08:39:30;;;;;;;22.65;10.93;;;6.60;90.30;;;;;;5099877;28;20024;-75
2021/10/22 08:41:58;;;;;;;15.15;8.70;;;6.60;90.30;;;;;;5090182;28;20036;-75
2021/10/22 08:44:26;;;;;;;15.07;8.95;;;6.80;90.70;;;;;;5080742;28;20081;-75
2021/10/22 08:46:52;;;;;;;12.35;7.55;;;7.20;91.00;;;;;;5080564;28;20028;-75
2021/10/22 08:49:18;;;;;;;12.95;7.18;;;7.70;90.70;;;;;;5080371;28;20025;-75
2021/10/22 08:51:44;;;;;;;10.40;5.97;;;8.00;90.30;;;;;;5079585;28;20029;-75
2021/10/22 08:54:12;;;;;;;10.10;5.50;;;8.30;90.20;;;;;;5080001;28;20103;-75
2021/10/22 08:56:42;;;;;;;10.95;5.45;;;8.50;90.10;;;;;;5080095;28;20023;-75
2021/10/22 08:59:09;;;;;;;12.05;5.72;;;8.60;90.10;;;;;;5080075;28;20107;-75
2021/10/22 09:02:14;;;;;;;13.48;6.85;;;8.60;90.20;;;;;;5080391;28;20530;-75
2021/10/22 09:04:42;;;;;;;15.52;6.55;;;8.80;90.40;;;;;;5092124;28;20028;-75
2021/10/22 09:07:11;;;;;;;7.05;4.68;;;8.90;90.50;;;;;;5081550;28;20028;-75
2021/10/22 09:09:37;;;;;;;8.13;5.15;;;9.20;90.50;;;;;;5080004;28;20027;-75
2021/10/22 09:12:03;;;;;;;11.02;4.88;;;9.30;90.50;;;;;;5079453;28;20099;-75
2021/10/22 09:14:29;;;;;;;8.45;4.70;;;9.50;90.50;;;;;;5080134;28;20070;-75
2021/10/22 09:16:55;;;;;;;8.30;5.05;;;9.80;90.60;;;;;;5080026;28;20099;-75
2021/10/22 09:19:28;;;;;;;10.70;5.70;;;9.90;90.40;;;;;;5080416;28;20111;-75
2021/10/22 09:21:57;;;;;;;13.95;5.50;;;10.30;90.80;;;;;;5086996;28;20024;-75
2021/10/22 09:24:23;;;;;;;13.90;6.55;;;10.60;90.30;;;;;;5096723;28;20024;-74
2021/10/22 09:26:51;;;;;;;8.45;5.60;;;10.90;89.80;;;;;;5094561;28;20487;-75
2021/10/22 09:29:19;;;;;;;10.98;4.72;;;11.00;89.20;;;;;;5079979;28;20035;-75
2021/10/22 09:31:47;;;;;;;9.38;4.00;;;11.30;88.20;;;;;;5080981;28;20475;-75
2021/10/22 09:34:35;;;;;;;11.85;4.90;;;11.40;88.60;;;;;;5099974;28;20455;-75
2021/10/22 09:37:20;;;;;;;9.77;4.70;;;11.60;88.90;;;;;;5089501;28;20051;-75
2021/10/22 09:39:46;;;;;;;7.32;4.25;;;11.80;89.60;;;;;;5079653;28;20090;-74
2021/10/22 09:42:18;;;;;;;7.28;4.25;;;12.40;89.00;;;;;;5079773;28;20024;-74
2021/10/22 09:44:47;;;;;;;10.70;4.97;;;12.70;88.60;;;;;;5086753;28;20020;-74
2021/10/22 09:47:18;;;;;;;17.17;7.43;;;13.20;88.20;;;;;;5085481;28;20031;-74
2021/10/22 09:49:52;;;;;;;12.85;6.70;;;13.60;86.60;;;;;;5079500;28;20028;-74
2021/10/22 09:52:27;;;;;;;15.23;6.53;;;13.80;86.30;;;;;;5078972;28;20077;-75
2021/10/22 09:55:13;;;;;;;13.77;8.65;;;14.40;85.90;;;;;;5079787;28;20028;-75
2021/10/22 09:57:44;;;;;;;13.73;8.25;;;15.10;84.20;;;;;;5087017;28;20538;-75
2021/10/22 10:00:19;;;;;;;18.67;8.90;;;15.70;82.00;;;;;;5084412;28;20032;-75
2021/10/22 10:02:45;;;;;;;20.20;10.07;;;16.30;80.90;;;;;;5079386;28;20100;-75
2021/10/22 10:05:12;;;;;;;20.23;10.93;;;16.90;79.00;;;;;;5078899;28;20016;-75
2021/10/22 10:07:42;;;;;;;17.27;10.10;;;17.30;77.60;;;;;;5078201;28;20023;-75
2021/10/22 10:10:11;;;;;;;14.30;8.20;;;17.70;78.80;;;;;;5078902;28;20028;-75
2021/10/22 10:12:40;;;;;;;15.93;7.97;;;18.20;78.80;;;;;;5078948;28;20043;-75
2021/10/22 10:15:08;;;;;;;15.55;7.53;;;18.70;78.30;;;;;;5079031;28;20033;-76
2021/10/22 10:17:49;;;;;;;17.70;10.77;;;19.10;77.40;;;;;;5079331;28;20051;-75
2021/10/22 10:20:20;;;;;;;21.48;12.07;;;19.60;76.40;;;;;;5086451;28;20028;-76
2021/10/22 10:22:51;;;;;;;26.00;16.80;;;20.00;76.10;;;;;;5083196;28;20108;-75
2021/10/22 10:25:20;;;;;;;29.35;18.17;;;20.30;74.40;;;;;;5094633;28;20016;-76
2021/10/22 10:27:52;;;;;;;19.13;13.43;;;20.80;71.70;;;;;;5084848;28;20056;-76
2021/10/22 10:30:35;;;;;;;18.27;11.88;;;21.10;70.00;;;;;;5079123;28;20020;-76
2021/10/22 10:33:04;;;;;;;16.73;9.85;;;21.30;71.40;;;;;;5090308;28;20487;-75
2021/10/22 10:35:38;;;;;;;19.27;9.60;;;21.40;70.50;;;;;;5088068;28;20090;-75
2021/10/22 10:38:08;;;;;;;16.95;8.63;;;21.70;70.70;;;;;;5078119;28;20055;-76
2021/10/22 10:40:36;;;;;;;11.75;4.60;;;21.90;68.90;;;;;;5078891;28;20021;-76
2021/10/22 10:43:17;;;;;;;15.57;6.93;;;22.20;65.70;;;;;;5078344;28;20766;-76
2021/10/22 10:45:44;;;;;;;21.08;10.68;;;22.30;66.40;;;;;;5078363;28;20028;-76
2021/10/22 10:48:18;;;;;;;23.63;13.23;;;22.40;67.50;;;;;;5078766;28;20027;-76
2021/10/22 10:50:56;;;;;;;27.42;14.48;;;22.50;67.00;;;;;;5077422;28;20033;-76
2021/10/22 10:53:39;;;;;;;26.50;14.55;;;22.80;66.80;;;;;;5078296;28;20052;-76
2021/10/22 10:56:19;;;;;;;28.33;14.73;;;22.80;65.70;;;;;;5085378;28;20028;-76
2021/10/22 10:58:45;;;;;;;18.42;7.60;;;22.40;64.80;;;;;;5082919;28;20021;-76
2021/10/22 11:01:30;;;;;;;13.07;4.25;;;22.10;65.00;;;;;;5078345;28;20425;-77
2021/10/22 11:03:57;;;;;;;13.07;3.80;;;22.20;65.30;;;;;;5077860;28;20033;-78
2021/10/22 11:06:47;;;;;;;15.30;4.65;;;22.20;64.30;;;;;;5078005;28;20057;-77
2021/10/22 11:09:34;;;;;;;14.20;3.75;;;21.80;63.10;;;;;;5086288;28;20473;-77
2021/10/22 11:12:01;;;;;;;10.10;3.58;;;21.30;64.20;;;;;;5079985;28;20028;-76
2021/10/22 11:14:43;;;;;;;10.60;3.25;;;21.00;64.50;;;;;;5078042;28;20352;-76
2021/10/22 11:17:10;;;;;;;12.02;2.53;;;21.10;64.50;;;;;;5085551;28;20062;-75
2021/10/22 11:19:39;;;;;;;9.20;1.60;;;21.40;63.80;;;;;;5083686;28;20063;-78
2021/10/22 11:22:13;;;;;;;11.25;2.78;;;21.80;62.80;;;;;;5077944;28;20426;-80
2021/10/22 11:24:41;;;;;;;9.07;2.30;;;22.10;63.20;;;;;;5090516;28;20103;-74
2021/10/22 11:27:18;;;;;;;11.80;3.15;;;22.20;61.40;;;;;;5090269;28;20032;-74
2021/10/22 11:29:46;;;;;;;11.38;2.97;;;22.10;61.20;;;;;;5076193;28;20025;-75
2021/10/22 11:32:17;;;;;;;8.85;2.75;;;22.00;61.30;;;;;;5081642;28;20024;-75
2021/10/22 11:34:50;;;;;;;8.90;2.72;;;21.90;61.70;;;;;;5092608;28;20119;-75
2021/10/22 11:37:17;;;;;;;8.93;2.22;;;22.00;63.20;;;;;;5077565;28;20049;-74
2021/10/22 11:39:49;;;;;;;8.27;2.03;;;22.20;62.60;;;;;;5076931;28;20552;-75
2021/10/22 11:42:32;;;;;;;9.70;2.10;;;22.20;62.00;;;;;;5077320;28;20060;-74
2021/10/22 11:45:07;;;;;;;9.38;2.13;;;22.00;61.30;;;;;;5077214;28;20039;-75
2021/10/22 11:47:41;;;;;;;5.90;1.58;;;21.70;59.70;;;;;;5075857;28;20082;-75
2021/10/22 11:50:11;;;;;;;6.45;1.80;;;21.40;59.20;;;;;;5077298;28;20039;-75
2021/10/22 11:52:37;;;;;;;13.38;2.72;;;21.00;60.10;;;;;;5076631;28;20028;-74
2021/10/22 11:55:04;;;;;;;6.88;1.73;;;20.70;59.90;;;;;;5076309;28;20426;-75
2021/10/22 11:57:34;;;;;;;8.32;2.53;;;20.30;60.30;;;;;;5077231;28;20554;-75
2021/10/22 12:00:04;;;;;;;8.18;1.50;;;20.00;60.80;;;;;;5077649;28;20048;-75
2021/10/22 12:02:31;;;;;;;5.63;1.42;;;19.80;61.70;;;;;;5076908;28;20077;-75
2021/10/22 12:04:59;;;;;;;6.78;1.88;;;19.50;61.50;;;;;;5077075;28;20044;-75
2021/10/22 12:07:40;;;;;;;7.82;1.55;;;19.40;62.30;;;;;;5083804;28;20053;-74
2021/10/22 12:10:08;;;;;;;7.95;1.60;;;19.10;62.40;;;;;;5081514;28;20068;-74
2021/10/22 12:12:41;;;;;;;8.30;1.90;;;19.00;63.60;;;;;;5077010;28;20602;-74
2021/10/22 12:15:11;;;;;;;7.95;2.20;;;18.90;63.90;;;;;;5075303;28;20031;-75
2021/10/22 12:17:37;;;;;;;10.40;2.03;;;18.70;63.40;;;;;;5076986;28;20017;-74
2021/10/22 12:20:06;;;;;;;10.68;2.10;;;18.60;62.80;;;;;;5075504;28;20024;-75
2021/10/22 12:22:37;;;;;;;9.15;2.20;;;18.40;61.50;;;;;;5075581;28;20060;-74
2021/10/22 12:25:13;;;;;;;9.45;2.67;;;18.30;62.40;;;;;;5093324;28;20025;-74
2021/10/22 12:27:39;;;;;;;9.63;2.88;;;18.20;62.00;;;;;;5084945;28;20059;-74
2021/10/22 12:30:07;;;;;;;14.00;4.10;;;18.00;62.60;;;;;;5076966;28;20021;-74
2021/10/22 12:32:44;;;;;;;11.00;3.75;;;17.90;63.20;;;;;;5084900;28;20020;-74
2021/10/22 12:35:39;;;;;;;17.20;6.03;;;17.80;63.70;;;;;;5085093;28;20039;-74
2021/10/22 12:38:06;;;;;;;20.90;6.07;;;17.60;63.70;;;;;;5077866;28;20064;-74
2021/10/22 12:40:42;;;;;;;10.82;2.95;;;17.40;61.10;;;;;;5076798;28;20060;-74
2021/10/22 12:43:13;;;;;;;10.43;2.35;;;17.30;60.00;;;;;;5083642;28;20020;-74
2021/10/22 12:45:45;;;;;;;9.93;1.95;;;17.50;63.00;;;;;;5082137;28;20077;-73
2021/10/22 12:48:11;;;;;;;6.82;1.92;;;17.90;62.50;;;;;;5077121;28;20024;-73
2021/10/22 12:50:39;;;;;;;10.20;2.90;;;18.10;63.80;;;;;;5076881;28;20028;-73
2021/10/22 12:53:14;;;;;;;8.30;2.20;;;18.30;63.20;;;;;;5075526;28;20024;-72
2021/10/22 12:55:44;;;;;;;11.50;3.78;;;18.40;60.40;;;;;;5076904;28;20048;-73
2021/10/22 12:58:21;;;;;;;12.88;3.78;;;18.40;61.20;;;;;;5077016;28;20024;-73